createdAt,value
2018-08-06T00:00:46.727Z,101593.91
2018-08-06T00:03:14.744Z,101592.70
2018-08-06T00:05:42.765Z,101596.13
2018-08-06T00:08:10.785Z,101592.77
2018-08-06T00:10:38.811Z,101589.64
2018-08-06T00:13:06.829Z,101589.42
2018-08-06T00:15:34.853Z,101587.77
2018-08-06T00:18:02.882Z,101588.51
2018-08-06T00:20:30.900Z,101579.74
2018-08-06T00:22:58.906Z,101581.33
2018-08-06T00:25:27.348Z,101577.73
2018-08-06T00:27:55.373Z,101572.09
2018-08-06T00:30:23.406Z,101571.39
2018-08-06T00:32:51.509Z,101570.55
2018-08-06T00:35:19.668Z,101563.92
2018-08-06T00:37:47.707Z,101564.07
2018-08-06T00:40:17.056Z,101567.20
2018-08-06T00:42:45.616Z,101555.05
2018-08-06T00:45:15.439Z,101553.95
2018-08-06T00:47:43.753Z,101544.12
2018-08-06T00:50:12.104Z,101547.73
2018-08-06T00:52:40.137Z,101546.70
2018-08-06T00:55:09.977Z,101546.41
2018-08-06T00:57:38.004Z,101544.02
2018-08-06T01:00:07.981Z,101545.48
2018-08-06T01:02:36.013Z,101545.15
2018-08-06T01:05:05.661Z,101549.52
2018-08-06T01:07:33.732Z,101547.98
2018-08-06T01:10:01.751Z,101546.38
2018-08-06T01:12:29.778Z,101535.72
2018-08-06T01:14:57.796Z,101538.14
2018-08-06T01:17:25.825Z,101543.36
2018-08-06T01:19:53.852Z,101534.86
2018-08-06T01:22:21.857Z,101528.01
2018-08-06T01:24:49.897Z,101520.94
2018-08-06T01:27:17.914Z,101521.45
2018-08-06T01:29:45.925Z,101521.23
2018-08-06T01:32:13.942Z,101514.24
2018-08-06T01:34:41.941Z,101515.48
2018-08-06T01:37:09.953Z,101513.09
2018-08-06T01:39:37.968Z,101514.34
2018-08-06T01:42:05.999Z,101508.48
2018-08-06T01:44:34.013Z,101507.89
2018-08-06T01:47:02.026Z,101498.54
2018-08-06T01:49:30.056Z,101500.01
2018-08-06T01:51:58.084Z,101495.00
2018-08-06T01:54:26.092Z,101492.27
2018-08-06T01:56:54.100Z,101494.31
2018-08-06T01:59:22.112Z,101488.47
2018-08-06T02:01:50.108Z,101495.70
2018-08-06T02:04:19.141Z,101489.70
2018-08-06T02:06:47.159Z,101483.00
2018-08-06T02:09:21.651Z,101482.44
2018-08-06T02:11:49.662Z,101481.98
2018-08-06T02:14:17.688Z,101483.11
2018-08-06T02:16:45.724Z,101473.48
2018-08-06T02:19:13.734Z,101475.42
2018-08-06T02:21:41.752Z,101477.02
2018-08-06T02:24:09.810Z,101467.54
2018-08-06T02:26:37.829Z,101466.12
2018-08-06T02:29:05.849Z,101464.95
2018-08-06T02:31:33.881Z,101470.14
2018-08-06T02:34:01.897Z,101464.63
2018-08-06T02:36:29.912Z,101459.95
2018-08-06T02:38:57.905Z,101456.12
2018-08-06T02:41:26.045Z,101452.88
2018-08-06T02:43:54.060Z,101449.42
2018-08-06T02:46:22.096Z,101449.69
2018-08-06T02:48:50.112Z,101452.45
2018-08-06T02:51:18.140Z,101458.77
2018-08-06T02:53:46.149Z,101453.39
2018-08-06T02:56:14.160Z,101450.15
2018-08-06T02:58:42.183Z,101447.38
2018-08-06T03:01:10.208Z,101441.05
2018-08-06T03:03:38.227Z,101437.61
2018-08-06T03:06:06.609Z,101436.81
2018-08-06T03:08:34.770Z,101443.55
2018-08-06T03:11:02.812Z,101438.03
2018-08-06T03:13:30.838Z,101436.62
2018-08-06T03:15:58.859Z,101439.54
2018-08-06T03:18:26.885Z,101436.30
2018-08-06T03:20:54.905Z,101432.74
2018-08-06T03:23:22.932Z,101430.00
2018-08-06T03:25:50.965Z,101427.47
2018-08-06T03:28:18.999Z,101421.61
2018-08-06T03:30:47.014Z,101420.67
2018-08-06T03:33:15.038Z,101419.85
2018-08-06T03:35:43.056Z,101417.69
2018-08-06T03:38:11.070Z,101419.25
2018-08-06T03:40:39.077Z,101414.09
2018-08-06T03:43:07.083Z,101420.84
2018-08-06T03:45:35.084Z,101409.70
2018-08-06T03:48:03.103Z,101408.99
2018-08-06T03:50:31.118Z,101410.31
2018-08-06T03:52:59.137Z,101413.19
2018-08-06T03:55:27.376Z,101410.31
2018-08-06T03:57:55.405Z,101406.97
2018-08-06T04:00:23.404Z,101407.10
2018-08-06T04:02:51.445Z,101407.23
2018-08-06T04:05:19.452Z,101404.22
2018-08-06T04:07:47.468Z,101404.36
2018-08-06T04:10:16.763Z,101396.91
2018-08-06T04:12:44.805Z,101390.81
2018-08-06T04:15:12.953Z,101390.45
2018-08-06T04:17:41.810Z,101387.09
2018-08-06T04:20:10.892Z,101395.02
2018-08-06T04:22:39.266Z,101393.97
2018-08-06T04:25:07.611Z,101394.58
2018-08-06T04:27:35.869Z,101391.33
2018-08-06T04:30:06.628Z,101391.09
2018-08-06T04:32:34.656Z,101382.97
2018-08-06T04:35:02.678Z,101380.80
2018-08-06T04:37:30.688Z,101384.52
2018-08-06T04:39:58.867Z,101381.41
2018-08-06T04:42:26.883Z,101385.37
2018-08-06T04:44:54.922Z,101385.50
2018-08-06T04:47:22.979Z,101387.05
2018-08-06T04:49:51.003Z,101380.45
2018-08-06T04:52:19.012Z,101382.63
2018-08-06T04:54:47.045Z,101379.61
2018-08-06T04:57:15.049Z,101380.12
2018-08-06T04:59:43.083Z,101377.48
2018-08-06T05:02:11.093Z,101383.09
2018-08-06T05:04:39.108Z,101380.33
2018-08-06T05:07:07.221Z,101381.78
2018-08-06T05:09:39.092Z,101372.67
2018-08-06T05:12:07.355Z,101373.38
2018-08-06T05:14:36.074Z,101367.02
2018-08-06T05:17:05.349Z,101371.09
2018-08-06T05:19:33.477Z,101371.30
2018-08-06T05:22:01.445Z,101369.36
2018-08-06T05:24:29.484Z,101371.91
2018-08-06T05:26:57.505Z,101368.28
2018-08-06T05:29:25.524Z,101372.37
2018-08-06T05:31:53.554Z,101374.77
2018-08-06T05:34:21.581Z,101374.37
2018-08-06T05:36:49.609Z,101375.17
2018-08-06T05:39:17.660Z,101371.88
2018-08-06T05:41:45.708Z,101361.98
2018-08-06T05:44:13.938Z,101363.53
2018-08-06T05:46:41.966Z,101357.27
2018-08-06T05:49:09.990Z,101355.33
2018-08-06T05:51:37.997Z,101353.91
2018-08-06T05:54:06.225Z,101358.44
2018-08-06T05:56:34.253Z,101352.77
2018-08-06T05:59:02.280Z,101351.03
2018-08-06T06:01:30.318Z,101350.03
2018-08-06T06:03:58.332Z,101356.59
2018-08-06T06:06:26.341Z,101363.17
2018-08-06T06:08:54.357Z,101366.61
2018-08-06T06:11:22.397Z,101360.88
2018-08-06T06:13:50.591Z,101363.92
2018-08-06T06:16:18.620Z,101359.36
2018-08-06T06:18:46.641Z,101359.48
2018-08-06T06:21:14.674Z,101362.78
2018-08-06T06:23:42.757Z,101363.45
2018-08-06T06:26:10.809Z,101362.52
2018-08-06T06:28:38.885Z,101370.03
2018-08-06T06:31:06.881Z,101370.69
2018-08-06T06:33:34.888Z,101368.08
2018-08-06T06:36:02.920Z,101368.58
2018-08-06T06:38:30.945Z,101362.16
2018-08-06T06:40:58.958Z,101362.34
2018-08-06T06:43:26.979Z,101358.05
2018-08-06T06:45:54.997Z,101354.47
2018-08-06T06:48:23.021Z,101348.19
2018-08-06T06:50:51.050Z,101355.73
2018-08-06T06:53:19.078Z,101353.09
2018-08-06T06:55:47.096Z,101358.05
2018-08-06T06:58:15.176Z,101354.69
2018-08-06T07:00:43.308Z,101350.12
2018-08-06T07:03:11.334Z,101348.20
2018-08-06T07:05:39.360Z,101349.72
2018-08-06T07:08:07.385Z,101348.88
2018-08-06T07:10:35.422Z,101354.34
2018-08-06T07:13:03.440Z,101349.75
2018-08-06T07:15:31.812Z,101341.67
2018-08-06T07:17:59.834Z,101349.72
2018-08-06T07:20:27.854Z,101346.72
2018-08-06T07:22:55.887Z,101350.23
2018-08-06T07:25:23.931Z,101343.36
2018-08-06T07:27:51.993Z,101343.08
2018-08-06T07:30:20.211Z,101339.11
2018-08-06T07:32:48.312Z,101339.17
2018-08-06T07:35:16.344Z,101334.34
2018-08-06T07:37:44.383Z,101338.25
2018-08-06T07:40:13.840Z,101335.48
2018-08-06T07:42:42.139Z,101327.40
2018-08-06T07:45:16.822Z,101322.16
2018-08-06T07:47:45.385Z,101328.81
2018-08-06T07:50:15.288Z,101327.09
2018-08-06T07:52:43.595Z,101326.36
2018-08-06T07:55:11.640Z,101328.95
2018-08-06T07:57:40.176Z,101332.66
2018-08-06T08:00:10.373Z,101331.95
2018-08-06T08:02:38.445Z,101320.20
2018-08-06T08:05:08.985Z,101322.44
2018-08-06T08:07:37.289Z,101320.33
2018-08-06T08:10:08.296Z,101324.51
2018-08-06T08:12:36.356Z,101323.39
2018-08-06T08:15:07.633Z,101328.97
2018-08-06T08:17:35.676Z,101318.45
2018-08-06T08:20:04.858Z,101317.92
2018-08-06T08:22:32.794Z,101317.92
2018-08-06T08:25:00.817Z,101315.95
2018-08-06T08:27:28.857Z,101312.70
2018-08-06T08:29:56.877Z,101311.07
2018-08-06T08:32:25.345Z,101304.13
2018-08-06T08:34:53.369Z,101296.78
2018-08-06T08:37:21.413Z,101292.66
2018-08-06T08:39:49.453Z,101291.33
2018-08-06T08:42:17.641Z,101295.11
2018-08-06T08:44:45.684Z,101286.77
2018-08-06T08:47:14.276Z,101282.17
2018-08-06T08:49:42.301Z,101276.78
2018-08-06T08:52:10.556Z,101273.69
2018-08-06T08:54:38.611Z,101276.34
2018-08-06T08:57:06.637Z,101268.99
2018-08-06T08:59:34.691Z,101269.46
2018-08-06T09:02:02.722Z,101267.86
2018-08-06T09:04:31.168Z,101262.42
2018-08-06T09:06:59.212Z,101261.45
2018-08-06T09:09:27.386Z,101258.46
2018-08-06T09:11:55.416Z,101259.58
2018-08-06T09:14:23.461Z,101256.92
2018-08-06T09:16:51.521Z,101258.75
2018-08-06T09:19:19.570Z,101253.42
2018-08-06T09:21:47.616Z,101251.78
2018-08-06T09:24:16.065Z,101247.45
2018-08-06T09:26:44.109Z,101244.67
2018-08-06T09:29:12.132Z,101246.62
2018-08-06T09:31:40.176Z,101253.71
2018-08-06T09:34:08.592Z,101251.27
2018-08-06T09:36:36.701Z,101249.34
2018-08-06T09:39:09.067Z,101247.58
2018-08-06T09:41:37.146Z,101244.08
2018-08-06T09:44:05.304Z,101235.48
2018-08-06T09:46:33.339Z,101236.39
2018-08-06T09:49:01.697Z,101224.58
2018-08-06T09:51:29.744Z,101228.02
2018-08-06T09:53:57.843Z,101229.75
2018-08-06T09:56:25.865Z,101223.00
2018-08-06T09:58:53.894Z,101216.13
2018-08-06T10:01:27.205Z,101211.36
2018-08-06T10:03:55.239Z,101209.66
2018-08-06T10:06:23.416Z,101211.14
2018-08-06T10:08:51.321Z,101208.22
2018-08-06T10:11:19.343Z,101202.89
2018-08-06T10:13:47.389Z,101202.61
2018-08-06T10:16:15.712Z,101199.67
2018-08-06T10:18:43.787Z,101202.97
2018-08-06T10:21:11.811Z,101195.98
2018-08-06T10:23:39.860Z,101188.30
2018-08-06T10:26:07.898Z,101183.92
2018-08-06T10:28:35.953Z,101182.66
2018-08-06T10:31:05.021Z,101175.45
2018-08-06T10:33:33.053Z,101170.80
2018-08-06T10:36:01.345Z,101167.90
2018-08-06T10:38:29.384Z,101162.70
2018-08-06T10:40:57.431Z,101164.10
2018-08-06T10:43:25.488Z,101162.91
2018-08-06T10:45:53.556Z,101155.81
2018-08-06T10:48:21.629Z,101148.16
2018-08-06T10:50:49.651Z,101150.80
2018-08-06T10:53:17.686Z,101147.94
2018-08-06T10:55:45.720Z,101137.81
2018-08-06T10:58:13.761Z,101134.95
2018-08-06T11:00:41.788Z,101129.26
2018-08-06T11:03:09.894Z,101128.23
2018-08-06T11:05:37.978Z,101132.02
2018-08-06T11:08:06.000Z,101124.59
2018-08-06T11:10:34.208Z,101127.98
2018-08-06T11:13:02.293Z,101125.78
2018-08-06T11:15:30.312Z,101118.47
2018-08-06T11:17:58.381Z,101126.05
2018-08-06T11:20:26.525Z,101121.19
2018-08-06T11:22:54.540Z,101121.48
2018-08-06T11:25:23.108Z,101119.98
2018-08-06T11:27:51.146Z,101110.30
2018-08-06T11:30:20.314Z,101111.25
2018-08-06T11:32:48.866Z,101107.56
2018-08-06T11:35:17.312Z,101108.69
2018-08-06T11:37:45.381Z,101098.91
2018-08-06T11:40:14.629Z,101097.21
2018-08-06T11:42:43.600Z,101093.97
2018-08-06T11:45:13.783Z,101096.59
2018-08-06T11:47:42.029Z,101091.08
2018-08-06T11:50:10.681Z,101085.63
2018-08-06T11:52:38.708Z,101079.59
2018-08-06T11:55:07.309Z,101076.98
2018-08-06T11:57:35.341Z,101066.53
2018-08-06T12:00:04.248Z,101065.86
2018-08-06T12:02:32.312Z,101065.30
2018-08-06T12:05:00.377Z,101059.80
2018-08-06T12:07:28.419Z,101063.38
2018-08-06T12:09:56.548Z,101056.65
2018-08-06T12:12:24.580Z,101055.45
2018-08-06T12:14:52.633Z,101055.67
2018-08-06T12:17:20.673Z,101048.80
2018-08-06T12:19:48.710Z,101052.94
2018-08-06T12:22:16.740Z,101051.11
2018-08-06T12:24:44.788Z,101048.28
2018-08-06T12:27:12.846Z,101041.56
2018-08-06T12:29:40.857Z,101052.11
2018-08-06T12:32:08.892Z,101039.84
2018-08-06T12:34:36.918Z,101043.69
2018-08-06T12:37:05.451Z,101039.61
2018-08-06T12:39:33.492Z,101041.44
2018-08-06T12:42:01.537Z,101030.09
2018-08-06T12:44:29.576Z,101030.88
2018-08-06T12:46:57.900Z,101029.36
2018-08-06T12:49:25.952Z,101028.98
2018-08-06T12:51:53.985Z,101022.75
2018-08-06T12:54:22.112Z,101015.74
2018-08-06T12:56:50.145Z,101016.48
2018-08-06T12:59:18.200Z,101011.99
2018-08-06T13:01:46.236Z,101013.23
2018-08-06T13:04:14.266Z,101011.47
2018-08-06T13:06:42.325Z,101011.16
2018-08-06T13:09:10.352Z,101007.09
2018-08-06T13:11:38.578Z,101002.11
2018-08-06T13:14:07.156Z,100995.95
2018-08-06T13:16:35.719Z,100991.66
2018-08-06T13:19:04.777Z,101000.11
2018-08-06T13:21:32.817Z,100988.97
2018-08-06T13:24:00.840Z,100985.75
2018-08-06T13:26:28.938Z,100980.85
2018-08-06T13:28:57.785Z,100981.05
2018-08-06T13:31:25.844Z,100974.75
2018-08-06T13:33:53.899Z,100970.79
2018-08-06T13:36:22.103Z,100971.44
2018-08-06T13:38:50.126Z,100972.05
2018-08-06T13:41:18.166Z,100970.18
2018-08-06T13:43:46.217Z,100965.06
2018-08-06T13:46:14.261Z,100961.48
2018-08-06T13:48:42.360Z,100959.56
2018-08-06T13:51:10.406Z,100953.58
2018-08-06T13:53:38.429Z,100952.20
2018-08-06T13:56:06.765Z,100947.28
2018-08-06T13:58:34.784Z,100945.45
2018-08-06T14:01:02.813Z,100934.02
2018-08-06T14:03:30.855Z,100930.27
2018-08-06T14:05:58.856Z,100927.56
2018-08-06T14:08:26.887Z,100923.78
2018-08-06T14:10:54.911Z,100930.81
2018-08-06T14:13:22.917Z,100925.30
2018-08-06T14:15:50.953Z,100922.72
2018-08-06T14:18:18.983Z,100916.38
2018-08-06T14:20:47.053Z,100919.64
2018-08-06T14:23:15.169Z,100916.93
2018-08-06T14:25:43.196Z,100911.44
2018-08-06T14:28:11.521Z,100907.81
2018-08-06T14:30:39.547Z,100904.52
2018-08-06T14:33:07.718Z,100900.12
2018-08-06T14:35:35.793Z,100895.49
2018-08-06T14:38:04.689Z,100892.23
2018-08-06T14:40:32.718Z,100889.77
2018-08-06T14:43:00.746Z,100887.59
2018-08-06T14:45:28.789Z,100882.05
2018-08-06T14:47:57.004Z,100877.14
2018-08-06T14:50:25.021Z,100879.73
2018-08-06T14:52:53.060Z,100873.74
2018-08-06T14:55:21.105Z,100870.16
2018-08-06T14:57:49.121Z,100868.56
2018-08-06T15:00:20.756Z,100866.91
2018-08-06T15:02:49.867Z,100864.43
2018-08-06T15:05:17.868Z,100859.04
2018-08-06T15:07:46.066Z,100862.58
2018-08-06T15:10:14.726Z,100860.40
2018-08-06T15:12:42.723Z,100856.55
2018-08-06T15:15:13.104Z,100852.39
2018-08-06T15:17:41.436Z,100851.54
2018-08-06T15:20:11.545Z,100848.18
2018-08-06T15:22:39.829Z,100848.05
2018-08-06T15:25:10.769Z,100851.45
2018-08-06T15:27:39.166Z,100844.86
2018-08-06T15:30:07.621Z,100842.66
2018-08-06T15:32:35.660Z,100835.33
2018-08-06T15:35:04.525Z,100840.00
2018-08-06T15:37:32.621Z,100830.02
2018-08-06T15:40:00.565Z,100833.52
2018-08-06T15:42:28.608Z,100827.22
2018-08-06T15:44:56.625Z,100827.16
2018-08-06T15:47:24.652Z,100831.52
2018-08-06T15:49:59.297Z,100820.74
2018-08-06T15:52:27.437Z,100824.11
2018-08-06T15:54:55.950Z,100815.72
2018-08-06T15:57:23.956Z,100820.91
2018-08-06T15:59:51.971Z,100817.73
2018-08-06T16:02:20.009Z,100807.33
2018-08-06T16:04:48.032Z,100804.28
2018-08-06T16:07:16.057Z,100805.48
2018-08-06T16:09:44.089Z,100809.33
2018-08-06T16:12:12.128Z,100806.34
2018-08-06T16:14:40.144Z,100806.58
2018-08-06T16:17:08.164Z,100800.86
2018-08-06T16:19:36.166Z,100803.67
2018-08-06T16:22:04.972Z,100801.31
2018-08-06T16:24:33.000Z,100792.50
2018-08-06T16:27:01.194Z,100795.85
2018-08-06T16:29:29.220Z,100794.38
2018-08-06T16:31:57.233Z,100793.89
2018-08-06T16:34:25.248Z,100784.92
2018-08-06T16:36:53.266Z,100789.52
2018-08-06T16:39:21.289Z,100787.25
2018-08-06T16:41:49.308Z,100775.94
2018-08-06T16:44:17.582Z,100781.92
2018-08-06T16:46:45.603Z,100780.80
2018-08-06T16:49:13.613Z,100773.58
2018-08-06T16:51:41.652Z,100771.58
2018-08-06T16:54:09.671Z,100771.78
2018-08-06T16:56:37.749Z,100769.67
2018-08-06T16:59:06.286Z,100769.52
2018-08-06T17:01:34.300Z,100770.17
2018-08-06T17:04:02.335Z,100760.96
2018-08-06T17:06:30.399Z,100759.03
2018-08-06T17:08:58.448Z,100765.53
2018-08-06T17:11:26.471Z,100762.51
2018-08-06T17:13:54.512Z,100759.96
2018-08-06T17:16:22.602Z,100768.45
2018-08-06T17:18:50.645Z,100762.09
2018-08-06T17:21:18.672Z,100761.45
2018-08-06T17:23:46.995Z,100768.11
2018-08-06T17:26:15.209Z,100765.58
2018-08-06T17:28:43.276Z,100757.41
2018-08-06T17:31:11.299Z,100759.73
2018-08-06T17:33:39.461Z,100756.20
2018-08-06T17:36:07.485Z,100754.55
2018-08-06T17:38:35.557Z,100756.66
2018-08-06T17:41:03.593Z,100757.07
2018-08-06T17:43:31.613Z,100759.37
2018-08-06T17:45:59.650Z,100753.33
2018-08-06T17:48:27.870Z,100756.24
2018-08-06T17:50:55.889Z,100762.09
2018-08-06T17:53:23.993Z,100759.33
2018-08-06T17:55:52.013Z,100763.06
2018-08-06T17:58:20.034Z,100756.44
2018-08-06T18:00:48.069Z,100757.39
2018-08-06T18:03:16.101Z,100760.34
2018-08-06T18:05:44.160Z,100755.44
2018-08-06T18:08:12.166Z,100760.14
2018-08-06T18:10:40.194Z,100760.02
2018-08-06T18:13:08.229Z,100754.21
2018-08-06T18:15:36.489Z,100756.79
2018-08-06T18:18:05.805Z,100756.17
2018-08-06T18:20:33.833Z,100754.77
2018-08-06T18:23:01.850Z,100756.53
2018-08-06T18:25:30.509Z,100754.29
2018-08-06T18:27:58.533Z,100747.96
2018-08-06T18:30:26.596Z,100753.41
2018-08-06T18:32:54.960Z,100751.95
2018-08-06T18:35:22.982Z,100755.81
2018-08-06T18:37:51.007Z,100754.56
2018-08-06T18:40:20.251Z,100751.14
2018-08-06T18:42:48.280Z,100750.69
2018-08-06T18:45:18.581Z,100751.79
2018-08-06T18:47:47.768Z,100752.57
2018-08-06T18:50:16.542Z,100755.53
2018-08-06T18:52:45.567Z,100757.66
2018-08-06T18:55:14.720Z,100759.96
2018-08-06T18:57:43.132Z,100756.84
2018-08-06T19:00:14.810Z,100754.34
2018-08-06T19:02:42.848Z,100750.57
2018-08-06T19:05:11.305Z,100755.67
2018-08-06T19:07:39.604Z,100754.03
2018-08-06T19:10:08.191Z,100754.84
2018-08-06T19:12:41.649Z,100758.30
2018-08-06T19:15:09.786Z,100760.25
2018-08-06T19:17:43.184Z,100751.58
2018-08-06T19:20:11.241Z,100754.24
2018-08-06T19:22:39.389Z,100757.16
2018-08-06T19:25:12.894Z,100761.07
2018-08-06T19:27:41.097Z,100762.79
2018-08-06T19:30:09.402Z,100764.48
2018-08-06T19:32:37.424Z,100764.78
2018-08-06T19:35:05.465Z,100771.06
2018-08-06T19:37:38.873Z,100762.48
2018-08-06T19:40:08.237Z,100759.88
2018-08-06T19:42:41.610Z,100763.22
2018-08-06T19:45:09.617Z,100765.23
2018-08-06T19:47:37.644Z,100762.14
2018-08-06T19:50:11.139Z,100762.49
2018-08-06T19:52:39.405Z,100765.09
2018-08-06T19:55:12.688Z,100761.33
2018-08-06T19:57:41.274Z,100761.91
2018-08-06T20:00:10.521Z,100765.84
2018-08-06T20:02:38.559Z,100769.37
2018-08-06T20:05:06.904Z,100765.13
2018-08-06T20:07:34.968Z,100767.59
2018-08-06T20:10:02.964Z,100764.23
2018-08-06T20:12:31.589Z,100765.89
2018-08-06T20:14:59.625Z,100772.66
2018-08-06T20:17:27.716Z,100765.95
2018-08-06T20:19:55.752Z,100764.16
2018-08-06T20:22:23.801Z,100770.53
2018-08-06T20:24:51.840Z,100766.77
2018-08-06T20:27:19.889Z,100768.08
2018-08-06T20:29:47.916Z,100766.46
2018-08-06T20:32:16.138Z,100766.12
2018-08-06T20:34:44.168Z,100766.31
2018-08-06T20:37:12.199Z,100770.23
2018-08-06T20:39:40.233Z,100766.27
2018-08-06T20:42:08.405Z,100761.83
2018-08-06T20:44:36.460Z,100760.97
2018-08-06T20:47:04.901Z,100756.77
2018-08-06T20:49:32.915Z,100762.52
2018-08-06T20:52:00.940Z,100754.24
2018-08-06T20:54:28.958Z,100759.80
2018-08-06T20:56:57.046Z,100760.36
2018-08-06T20:59:25.047Z,100758.27
2018-08-06T21:01:53.068Z,100759.57
2018-08-06T21:04:21.073Z,100761.68
2018-08-06T21:06:49.709Z,100759.08
2018-08-06T21:09:17.730Z,100758.30
2018-08-06T21:11:45.760Z,100766.22
2018-08-06T21:14:13.796Z,100759.80
2018-08-06T21:16:41.816Z,100758.59
2018-08-06T21:19:09.841Z,100755.85
2018-08-06T21:21:37.856Z,100756.31
2018-08-06T21:24:05.903Z,100754.40
2018-08-06T21:26:33.940Z,100760.69
2018-08-06T21:29:01.980Z,100760.61
2018-08-06T21:31:30.008Z,100763.89
2018-08-06T21:33:58.045Z,100765.48
2018-08-06T21:36:26.063Z,100760.52
2018-08-06T21:38:54.109Z,100763.08
2018-08-06T21:41:22.125Z,100758.59
2018-08-06T21:43:50.324Z,100753.20
2018-08-06T21:46:18.596Z,100758.45
2018-08-06T21:48:46.726Z,100759.14
2018-08-06T21:51:14.752Z,100756.03
2018-08-06T21:53:42.780Z,100752.08
2018-08-06T21:56:10.819Z,100755.93
2018-08-06T21:58:38.832Z,100752.28
2018-08-06T22:01:07.009Z,100752.67
2018-08-06T22:03:35.029Z,100754.69
2018-08-06T22:06:03.068Z,100759.05
2018-08-06T22:08:31.089Z,100752.13
2018-08-06T22:10:59.305Z,100753.05
2018-08-06T22:13:27.319Z,100750.25
2018-08-06T22:15:55.494Z,100751.12
2018-08-06T22:18:23.533Z,100755.66
2018-08-06T22:20:51.557Z,100755.66
2018-08-06T22:23:19.577Z,100758.52
2018-08-06T22:25:47.618Z,100757.34
2018-08-06T22:28:15.632Z,100754.56
2018-08-06T22:30:43.672Z,100756.24
2018-08-06T22:33:11.697Z,100752.78
2018-08-06T22:35:40.020Z,100750.00
2018-08-06T22:38:08.044Z,100743.19
2018-08-06T22:40:36.068Z,100745.70
2018-08-06T22:43:04.980Z,100736.95
2018-08-06T22:45:33.023Z,100736.45
2018-08-06T22:48:01.061Z,100739.00
2018-08-06T22:50:29.067Z,100735.34
2018-08-06T22:52:57.224Z,100738.70
2018-08-06T22:55:25.236Z,100735.08
2018-08-06T22:57:53.256Z,100736.95
2018-08-06T23:00:21.315Z,100733.67
2018-08-06T23:02:49.326Z,100733.36
2018-08-06T23:05:17.534Z,100734.08
2018-08-06T23:07:45.597Z,100730.08
2018-08-06T23:10:15.148Z,100725.63
2018-08-06T23:12:44.207Z,100719.19
2018-08-06T23:15:13.906Z,100718.20
2018-08-06T23:17:42.129Z,100713.25
2018-08-06T23:20:10.604Z,100710.77
2018-08-06T23:22:39.077Z,100707.61
2018-08-06T23:25:07.577Z,100704.17
2018-08-06T23:27:36.361Z,100707.18
2018-08-06T23:30:07.429Z,100710.70
2018-08-06T23:32:35.451Z,100697.42
2018-08-06T23:35:04.341Z,100696.62
2018-08-06T23:37:32.371Z,100696.34
2018-08-06T23:40:00.389Z,100700.02
2018-08-06T23:42:28.576Z,100699.05
2018-08-06T23:44:56.596Z,100692.24
2018-08-06T23:47:25.021Z,100688.44
2018-08-06T23:49:53.032Z,100684.47
2018-08-06T23:52:21.054Z,100687.47
2018-08-06T23:54:49.635Z,100684.14
2018-08-06T23:57:17.655Z,100680.20
2018-08-06T23:59:45.665Z,100680.41
